sensor_id;sensor_type;location;lat;lon;timestamp;P1;durP1;ratioP1;P2;durP2;ratioP2
14348;SDS011;7258;50.376;8.742;2023-06-24T00:00:41;5.43;;;5.03;;
14348;SDS011;7258;50.376;8.742;2023-06-24T00:02:44;6.28;;;5.60;;
14348;SDS011;7258;50.376;8.742;2023-06-24T00:04:47;6.35;;;5.85;;
14348;SDS011;7258;50.376;8.742;2023-06-24T00:06:50;6.53;;;5.93;;
14348;SDS011;7258;50.376;8.742;2023-06-24T00:08:54;7.40;;;5.60;;
14348;SDS011;7258;50.376;8.742;2023-06-24T00:11:01;6.40;;;5.80;;
14348;SDS011;7258;50.376;8.742;2023-06-24T00:13:05;6.07;;;5.57;;
14348;SDS011;7258;50.376;8.742;2023-06-24T00:15:09;6.78;;;6.07;;
14348;SDS011;7258;50.376;8.742;2023-06-24T00:17:13;6.15;;;5.65;;
14348;SDS011;7258;50.376;8.742;2023-06-24T00:19:18;7.53;;;6.03;;
14348;SDS011;7258;50.376;8.742;2023-06-24T00:21:22;7.55;;;6.07;;
14348;SDS011;7258;50.376;8.742;2023-06-24T00:23:31;6.30;;;5.70;;
14348;SDS011;7258;50.376;8.742;2023-06-24T00:25:35;6.95;;;5.93;;
14348;SDS011;7258;50.376;8.742;2023-06-24T00:27:38;6.63;;;5.97;;
14348;SDS011;7258;50.376;8.742;2023-06-24T00:29:42;6.45;;;5.78;;
14348;SDS011;7258;50.376;8.742;2023-06-24T00:31:45;6.20;;;5.60;;
14348;SDS011;7258;50.376;8.742;2023-06-24T00:33:49;6.57;;;5.97;;
14348;SDS011;7258;50.376;8.742;2023-06-24T00:35:53;6.57;;;5.95;;
14348;SDS011;7258;50.376;8.742;2023-06-24T00:37:58;6.95;;;6.25;;
14348;SDS011;7258;50.376;8.742;2023-06-24T00:40:00;6.25;;;5.65;;
14348;SDS011;7258;50.376;8.742;2023-06-24T00:42:05;7.38;;;6.60;;
14348;SDS011;7258;50.376;8.742;2023-06-24T00:44:08;6.85;;;6.25;;
14348;SDS011;7258;50.376;8.742;2023-06-24T00:46:12;6.30;;;5.80;;
14348;SDS011;7258;50.376;8.742;2023-06-24T00:48:16;6.72;;;6.15;;
14348;SDS011;7258;50.376;8.742;2023-06-24T00:50:20;6.65;;;6.05;;
14348;SDS011;7258;50.376;8.742;2023-06-24T00:52:23;6.63;;;5.93;;
14348;SDS011;7258;50.376;8.742;2023-06-24T00:54:26;6.70;;;6.10;;
14348;SDS011;7258;50.376;8.742;2023-06-24T00:56:33;6.40;;;5.80;;
14348;SDS011;7258;50.376;8.742;2023-06-24T00:58:40;7.45;;;6.72;;
14348;SDS011;7258;50.376;8.742;2023-06-24T01:00:43;6.78;;;5.70;;
14348;SDS011;7258;50.376;8.742;2023-06-24T01:02:49;7.20;;;6.60;;
14348;SDS011;7258;50.376;8.742;2023-06-24T01:04:53;6.90;;;6.30;;
14348;SDS011;7258;50.376;8.742;2023-06-24T01:06:56;7.13;;;6.43;;
14348;SDS011;7258;50.376;8.742;2023-06-24T01:09:00;7.35;;;6.25;;
14348;SDS011;7258;50.376;8.742;2023-06-24T01:11:03;6.28;;;5.75;;
14348;SDS011;7258;50.376;8.742;2023-06-24T01:13:06;7.15;;;6.53;;
14348;SDS011;7258;50.376;8.742;2023-06-24T01:15:09;6.83;;;6.20;;
14348;SDS011;7258;50.376;8.742;2023-06-24T01:17:14;7.85;;;6.13;;
14348;SDS011;7258;50.376;8.742;2023-06-24T01:19:37;6.85;;;6.35;;
14348;SDS011;7258;50.376;8.742;2023-06-24T01:21:55;7.10;;;6.40;;
14348;SDS011;7258;50.376;8.742;2023-06-24T01:24:26;6.78;;;6.07;;
14348;SDS011;7258;50.376;8.742;2023-06-24T01:29:20;7.03;;;6.43;;
14348;SDS011;7258;50.376;8.742;2023-06-24T01:31:42;8.30;;;6.63;;
14348;SDS011;7258;50.376;8.742;2023-06-24T01:33:50;7.63;;;6.93;;
14348;SDS011;7258;50.376;8.742;2023-06-24T01:36:01;7.20;;;6.50;;
14348;SDS011;7258;50.376;8.742;2023-06-24T01:38:07;7.28;;;6.53;;
14348;SDS011;7258;50.376;8.742;2023-06-24T01:40:14;7.63;;;7.00;;
14348;SDS011;7258;50.376;8.742;2023-06-24T01:42:23;8.13;;;6.90;;
14348;SDS011;7258;50.376;8.742;2023-06-24T01:44:25;7.22;;;6.63;;
14348;SDS011;7258;50.376;8.742;2023-06-24T01:46:31;7.27;;;6.63;;
14348;SDS011;7258;50.376;8.742;2023-06-24T01:48:35;7.88;;;6.97;;
14348;SDS011;7258;50.376;8.742;2023-06-24T01:50:42;9.00;;;6.93;;
14348;SDS011;7258;50.376;8.742;2023-06-24T01:52:48;7.38;;;6.78;;
14348;SDS011;7258;50.376;8.742;2023-06-24T01:54:54;7.07;;;6.47;;
14348;SDS011;7258;50.376;8.742;2023-06-24T01:57:00;7.15;;;6.55;;
14348;SDS011;7258;50.376;8.742;2023-06-24T01:59:08;7.10;;;6.50;;
14348;SDS011;7258;50.376;8.742;2023-06-24T02:01:12;8.13;;;6.40;;
14348;SDS011;7258;50.376;8.742;2023-06-24T02:03:16;8.37;;;7.57;;
14348;SDS011;7258;50.376;8.742;2023-06-24T02:05:22;9.23;;;6.78;;
14348;SDS011;7258;50.376;8.742;2023-06-24T02:07:27;8.27;;;6.87;;
14348;SDS011;7258;50.376;8.742;2023-06-24T02:09:31;6.97;;;6.38;;
14348;SDS011;7258;50.376;8.742;2023-06-24T02:11:35;7.30;;;6.40;;
14348;SDS011;7258;50.376;8.742;2023-06-24T02:13:39;7.80;;;7.10;;
14348;SDS011;7258;50.376;8.742;2023-06-24T02:15:44;9.27;;;6.57;;
14348;SDS011;7258;50.376;8.742;2023-06-24T02:17:50;7.07;;;6.47;;
14348;SDS011;7258;50.376;8.742;2023-06-24T02:19:57;8.10;;;7.00;;
14348;SDS011;7258;50.376;8.742;2023-06-24T02:22:03;7.53;;;6.93;;
14348;SDS011;7258;50.376;8.742;2023-06-24T02:24:10;10.37;;;6.63;;
14348;SDS011;7258;50.376;8.742;2023-06-24T02:26:14;7.47;;;6.78;;
14348;SDS011;7258;50.376;8.742;2023-06-24T02:28:18;7.23;;;6.63;;
14348;SDS011;7258;50.376;8.742;2023-06-24T02:30:22;8.30;;;6.70;;
14348;SDS011;7258;50.376;8.742;2023-06-24T02:32:26;7.37;;;6.67;;
14348;SDS011;7258;50.376;8.742;2023-06-24T02:34:30;8.57;;;7.07;;
14348;SDS011;7258;50.376;8.742;2023-06-24T02:36:33;7.57;;;6.82;;
14348;SDS011;7258;50.376;8.742;2023-06-24T02:38:37;7.40;;;6.80;;
14348;SDS011;7258;50.376;8.742;2023-06-24T02:40:42;7.53;;;6.83;;
14348;SDS011;7258;50.376;8.742;2023-06-24T02:42:46;8.60;;;7.23;;
14348;SDS011;7258;50.376;8.742;2023-06-24T02:44:49;7.10;;;6.50;;
14348;SDS011;7258;50.376;8.742;2023-06-24T02:46:53;7.33;;;6.73;;
14348;SDS011;7258;50.376;8.742;2023-06-24T02:48:56;7.23;;;6.63;;
14348;SDS011;7258;50.376;8.742;2023-06-24T02:51:00;7.83;;;7.03;;
14348;SDS011;7258;50.376;8.742;2023-06-24T02:53:04;9.13;;;7.00;;
14348;SDS011;7258;50.376;8.742;2023-06-24T02:55:09;7.77;;;6.97;;
14348;SDS011;7258;50.376;8.742;2023-06-24T02:57:13;7.30;;;6.70;;
14348;SDS011;7258;50.376;8.742;2023-06-24T02:59:16;7.50;;;6.80;;
14348;SDS011;7258;50.376;8.742;2023-06-24T03:01:23;7.88;;;7.07;;
14348;SDS011;7258;50.376;8.742;2023-06-24T03:03:28;7.90;;;7.23;;
14348;SDS011;7258;50.376;8.742;2023-06-24T03:05:34;7.67;;;6.97;;
14348;SDS011;7258;50.376;8.742;2023-06-24T03:07:38;6.83;;;6.23;;
14348;SDS011;7258;50.376;8.742;2023-06-24T03:09:42;7.27;;;6.67;;
14348;SDS011;7258;50.376;8.742;2023-06-24T03:11:47;8.30;;;7.50;;
14348;SDS011;7258;50.376;8.742;2023-06-24T03:13:50;10.97;;;7.10;;
14348;SDS011;7258;50.376;8.742;2023-06-24T03:15:53;8.63;;;7.27;;
14348;SDS011;7258;50.376;8.742;2023-06-24T03:17:56;8.00;;;7.20;;
14348;SDS011;7258;50.376;8.742;2023-06-24T03:19:59;7.80;;;7.03;;
14348;SDS011;7258;50.376;8.742;2023-06-24T03:22:03;8.77;;;7.03;;
14348;SDS011;7258;50.376;8.742;2023-06-24T03:24:06;8.03;;;7.23;;
14348;SDS011;7258;50.376;8.742;2023-06-24T03:26:09;8.63;;;6.97;;
14348;SDS011;7258;50.376;8.742;2023-06-24T03:28:13;6.77;;;6.10;;
14348;SDS011;7258;50.376;8.742;2023-06-24T03:30:16;12.03;;;7.43;;
14348;SDS011;7258;50.376;8.742;2023-06-24T03:32:19;7.70;;;7.00;;
14348;SDS011;7258;50.376;8.742;2023-06-24T03:34:22;7.93;;;7.13;;
14348;SDS011;7258;50.376;8.742;2023-06-24T03:36:26;8.17;;;7.40;;
14348;SDS011;7258;50.376;8.742;2023-06-24T03:38:29;7.63;;;6.90;;
14348;SDS011;7258;50.376;8.742;2023-06-24T03:40:32;7.97;;;7.17;;
14348;SDS011;7258;50.376;8.742;2023-06-24T03:42:35;8.70;;;7.23;;
14348;SDS011;7258;50.376;8.742;2023-06-24T03:44:39;7.13;;;6.27;;
14348;SDS011;7258;50.376;8.742;2023-06-24T03:46:42;9.13;;;7.43;;
14348;SDS011;7258;50.376;8.742;2023-06-24T03:48:45;8.83;;;7.50;;
14348;SDS011;7258;50.376;8.742;2023-06-24T03:50:48;7.70;;;7.00;;
14348;SDS011;7258;50.376;8.742;2023-06-24T03:52:51;7.53;;;6.93;;
14348;SDS011;7258;50.376;8.742;2023-06-24T03:54:54;7.67;;;6.97;;
14348;SDS011;7258;50.376;8.742;2023-06-24T03:56:57;7.33;;;6.73;;
14348;SDS011;7258;50.376;8.742;2023-06-24T03:59:00;8.18;;;6.60;;
14348;SDS011;7258;50.376;8.742;2023-06-24T04:01:08;7.33;;;6.70;;
14348;SDS011;7258;50.376;8.742;2023-06-24T04:03:12;7.40;;;6.73;;
14348;SDS011;7258;50.376;8.742;2023-06-24T04:05:15;8.32;;;7.38;;
14348;SDS011;7258;50.376;8.742;2023-06-24T04:07:18;7.30;;;6.60;;
14348;SDS011;7258;50.376;8.742;2023-06-24T04:09:28;7.80;;;7.00;;
14348;SDS011;7258;50.376;8.742;2023-06-24T04:11:32;8.70;;;6.65;;
14348;SDS011;7258;50.376;8.742;2023-06-24T04:13:35;7.25;;;6.55;;
14348;SDS011;7258;50.376;8.742;2023-06-24T04:15:38;10.43;;;7.20;;
14348;SDS011;7258;50.376;8.742;2023-06-24T04:17:42;7.20;;;6.50;;
14348;SDS011;7258;50.376;8.742;2023-06-24T04:19:45;10.37;;;6.87;;
14348;SDS011;7258;50.376;8.742;2023-06-24T04:21:48;7.73;;;6.50;;
14348;SDS011;7258;50.376;8.742;2023-06-24T04:23:51;8.70;;;7.03;;
14348;SDS011;7258;50.376;8.742;2023-06-24T04:25:54;8.63;;;6.40;;
14348;SDS011;7258;50.376;8.742;2023-06-24T04:27:57;8.23;;;6.70;;
14348;SDS011;7258;50.376;8.742;2023-06-24T04:30:00;7.25;;;6.53;;
14348;SDS011;7258;50.376;8.742;2023-06-24T04:32:03;8.00;;;7.07;;
14348;SDS011;7258;50.376;8.742;2023-06-24T04:34:08;6.65;;;6.00;;
14348;SDS011;7258;50.376;8.742;2023-06-24T04:36:11;7.22;;;6.63;;
14348;SDS011;7258;50.376;8.742;2023-06-24T04:38:14;7.18;;;6.47;;
14348;SDS011;7258;50.376;8.742;2023-06-24T04:40:19;7.82;;;6.90;;
14348;SDS011;7258;50.376;8.742;2023-06-24T04:42:22;8.40;;;6.78;;
14348;SDS011;7258;50.376;8.742;2023-06-24T04:44:26;7.30;;;6.70;;
14348;SDS011;7258;50.376;8.742;2023-06-24T04:46:37;6.88;;;6.25;;
14348;SDS011;7258;50.376;8.742;2023-06-24T04:48:41;7.13;;;6.50;;
14348;SDS011;7258;50.376;8.742;2023-06-24T04:50:45;6.93;;;6.20;;
14348;SDS011;7258;50.376;8.742;2023-06-24T04:52:51;7.07;;;6.40;;
14348;SDS011;7258;50.376;8.742;2023-06-24T04:54:55;8.18;;;6.65;;
14348;SDS011;7258;50.376;8.742;2023-06-24T04:56:58;7.55;;;6.45;;
14348;SDS011;7258;50.376;8.742;2023-06-24T04:59:01;7.28;;;6.45;;
14348;SDS011;7258;50.376;8.742;2023-06-24T05:01:04;9.98;;;6.72;;
14348;SDS011;7258;50.376;8.742;2023-06-24T05:03:07;8.45;;;6.88;;
14348;SDS011;7258;50.376;8.742;2023-06-24T05:05:10;8.82;;;6.20;;
14348;SDS011;7258;50.376;8.742;2023-06-24T05:07:17;7.90;;;7.20;;
14348;SDS011;7258;50.376;8.742;2023-06-24T05:09:23;8.10;;;7.13;;
14348;SDS011;7258;50.376;8.742;2023-06-24T05:11:26;7.78;;;7.03;;
14348;SDS011;7258;50.376;8.742;2023-06-24T05:13:28;7.57;;;6.53;;
14348;SDS011;7258;50.376;8.742;2023-06-24T05:15:31;7.20;;;6.15;;
14348;SDS011;7258;50.376;8.742;2023-06-24T05:17:35;6.82;;;6.22;;
14348;SDS011;7258;50.376;8.742;2023-06-24T05:19:38;8.52;;;6.47;;
14348;SDS011;7258;50.376;8.742;2023-06-24T05:21:41;6.50;;;5.82;;
14348;SDS011;7258;50.376;8.742;2023-06-24T05:23:45;6.43;;;5.70;;
14348;SDS011;7258;50.376;8.742;2023-06-24T05:25:48;8.35;;;6.38;;
14348;SDS011;7258;50.376;8.742;2023-06-24T05:27:53;6.50;;;5.90;;
14348;SDS011;7258;50.376;8.742;2023-06-24T05:29:56;6.40;;;5.80;;
14348;SDS011;7258;50.376;8.742;2023-06-24T05:31:59;6.60;;;6.00;;
14348;SDS011;7258;50.376;8.742;2023-06-24T05:34:04;7.88;;;6.03;;
14348;SDS011;7258;50.376;8.742;2023-06-24T05:36:07;7.13;;;6.32;;
14348;SDS011;7258;50.376;8.742;2023-06-24T05:38:10;6.40;;;5.82;;
14348;SDS011;7258;50.376;8.742;2023-06-24T05:40:15;5.95;;;5.40;;
14348;SDS011;7258;50.376;8.742;2023-06-24T05:42:18;8.00;;;6.25;;
14348;SDS011;7258;50.376;8.742;2023-06-24T05:44:21;6.78;;;6.18;;
14348;SDS011;7258;50.376;8.742;2023-06-24T05:46:25;7.28;;;5.75;;
14348;SDS011;7258;50.376;8.742;2023-06-24T05:48:28;6.75;;;6.15;;
14348;SDS011;7258;50.376;8.742;2023-06-24T05:50:33;7.25;;;6.55;;
14348;SDS011;7258;50.376;8.742;2023-06-24T05:52:36;6.90;;;6.20;;
14348;SDS011;7258;50.376;8.742;2023-06-24T05:54:39;6.18;;;5.68;;
14348;SDS011;7258;50.376;8.742;2023-06-24T05:56:43;6.30;;;5.72;;
14348;SDS011;7258;50.376;8.742;2023-06-24T05:58:46;6.60;;;5.50;;
14348;SDS011;7258;50.376;8.742;2023-06-24T06:00:49;6.63;;;5.40;;
14348;SDS011;7258;50.376;8.742;2023-06-24T06:02:52;7.28;;;5.72;;
14348;SDS011;7258;50.376;8.742;2023-06-24T06:04:55;6.00;;;5.45;;
14348;SDS011;7258;50.376;8.742;2023-06-24T06:06:58;6.85;;;6.13;;
14348;SDS011;7258;50.376;8.742;2023-06-24T06:09:01;6.40;;;5.82;;
14348;SDS011;7258;50.376;8.742;2023-06-24T06:11:04;6.95;;;6.00;;
14348;SDS011;7258;50.376;8.742;2023-06-24T06:13:08;6.88;;;6.18;;
14348;SDS011;7258;50.376;8.742;2023-06-24T06:15:12;6.45;;;5.88;;
14348;SDS011;7258;50.376;8.742;2023-06-24T06:17:17;8.02;;;6.15;;
14348;SDS011;7258;50.376;8.742;2023-06-24T06:19:23;9.25;;;6.97;;
14348;SDS011;7258;50.376;8.742;2023-06-24T06:21:26;6.78;;;6.28;;
14348;SDS011;7258;50.376;8.742;2023-06-24T06:23:29;7.13;;;6.35;;
14348;SDS011;7258;50.376;8.742;2023-06-24T06:25:32;6.78;;;6.20;;
14348;SDS011;7258;50.376;8.742;2023-06-24T06:27:36;6.97;;;6.28;;
14348;SDS011;7258;50.376;8.742;2023-06-24T06:29:40;7.13;;;6.45;;
14348;SDS011;7258;50.376;8.742;2023-06-24T06:31:43;7.60;;;6.28;;
14348;SDS011;7258;50.376;8.742;2023-06-24T06:33:46;7.20;;;6.47;;
14348;SDS011;7258;50.376;8.742;2023-06-24T06:35:53;6.90;;;6.30;;
14348;SDS011;7258;50.376;8.742;2023-06-24T06:37:57;7.82;;;6.50;;
14348;SDS011;7258;50.376;8.742;2023-06-24T06:40:00;7.30;;;6.20;;
14348;SDS011;7258;50.376;8.742;2023-06-24T06:42:03;7.13;;;6.53;;
14348;SDS011;7258;50.376;8.742;2023-06-24T06:44:07;7.38;;;6.70;;
14348;SDS011;7258;50.376;8.742;2023-06-24T06:46:11;6.93;;;6.20;;
14348;SDS011;7258;50.376;8.742;2023-06-24T06:48:14;7.40;;;6.70;;
14348;SDS011;7258;50.376;8.742;2023-06-24T06:50:17;7.50;;;6.82;;
14348;SDS011;7258;50.376;8.742;2023-06-24T06:52:20;9.07;;;6.90;;
14348;SDS011;7258;50.376;8.742;2023-06-24T06:54:23;8.45;;;7.72;;
14348;SDS011;7258;50.376;8.742;2023-06-24T06:56:29;6.40;;;5.82;;
14348;SDS011;7258;50.376;8.742;2023-06-24T06:58:35;8.27;;;7.47;;
14348;SDS011;7258;50.376;8.742;2023-06-24T07:00:39;9.60;;;6.60;;
14348;SDS011;7258;50.376;8.742;2023-06-24T07:02:48;8.35;;;7.50;;
14348;SDS011;7258;50.376;8.742;2023-06-24T07:04:53;8.65;;;7.10;;
14348;SDS011;7258;50.376;8.742;2023-06-24T07:06:56;9.27;;;7.13;;
14348;SDS011;7258;50.376;8.742;2023-06-24T07:08:59;7.07;;;6.47;;
14348;SDS011;7258;50.376;8.742;2023-06-24T07:11:02;6.88;;;6.25;;
14348;SDS011;7258;50.376;8.742;2023-06-24T07:13:08;7.47;;;6.57;;
14348;SDS011;7258;50.376;8.742;2023-06-24T07:15:11;10.15;;;7.10;;
14348;SDS011;7258;50.376;8.742;2023-06-24T07:17:14;7.43;;;6.70;;
14348;SDS011;7258;50.376;8.742;2023-06-24T07:19:19;10.27;;;7.00;;
14348;SDS011;7258;50.376;8.742;2023-06-24T07:21:22;8.25;;;6.63;;
14348;SDS011;7258;50.376;8.742;2023-06-24T07:23:25;7.82;;;6.63;;
14348;SDS011;7258;50.376;8.742;2023-06-24T07:25:28;7.85;;;7.05;;
14348;SDS011;7258;50.376;8.742;2023-06-24T07:27:31;7.00;;;6.30;;
14348;SDS011;7258;50.376;8.742;2023-06-24T07:29:35;7.18;;;6.57;;
14348;SDS011;7258;50.376;8.742;2023-06-24T07:31:38;8.43;;;6.97;;
14348;SDS011;7258;50.376;8.742;2023-06-24T07:33:41;10.85;;;6.68;;
14348;SDS011;7258;50.376;8.742;2023-06-24T07:35:46;7.60;;;6.90;;
14348;SDS011;7258;50.376;8.742;2023-06-24T07:37:49;9.23;;;6.70;;
14348;SDS011;7258;50.376;8.742;2023-06-24T07:39:52;6.68;;;6.07;;
14348;SDS011;7258;50.376;8.742;2023-06-24T07:41:55;7.70;;;6.50;;
14348;SDS011;7258;50.376;8.742;2023-06-24T07:43:58;6.60;;;5.80;;
14348;SDS011;7258;50.376;8.742;2023-06-24T07:46:01;7.40;;;6.80;;
14348;SDS011;7258;50.376;8.742;2023-06-24T07:48:13;6.53;;;5.82;;
14348;SDS011;7258;50.376;8.742;2023-06-24T07:50:16;8.82;;;6.50;;
14348;SDS011;7258;50.376;8.742;2023-06-24T07:52:20;6.90;;;6.15;;
14348;SDS011;7258;50.376;8.742;2023-06-24T07:54:26;6.53;;;5.82;;
14348;SDS011;7258;50.376;8.742;2023-06-24T07:56:29;7.40;;;6.32;;
14348;SDS011;7258;50.376;8.742;2023-06-24T07:58:33;7.03;;;6.32;;
14348;SDS011;7258;50.376;8.742;2023-06-24T08:00:41;7.20;;;6.50;;
14348;SDS011;7258;50.376;8.742;2023-06-24T08:02:45;7.18;;;6.43;;
14348;SDS011;7258;50.376;8.742;2023-06-24T08:04:48;6.78;;;6.07;;
14348;SDS011;7258;50.376;8.742;2023-06-24T08:06:52;6.40;;;5.75;;
14348;SDS011;7258;50.376;8.742;2023-06-24T08:08:57;6.70;;;6.03;;
14348;SDS011;7258;50.376;8.742;2023-06-24T08:11:00;6.45;;;5.95;;
14348;SDS011;7258;50.376;8.742;2023-06-24T08:13:03;7.55;;;6.22;;
14348;SDS011;7258;50.376;8.742;2023-06-24T08:15:06;6.97;;;5.60;;
14348;SDS011;7258;50.376;8.742;2023-06-24T08:17:10;8.02;;;5.47;;
14348;SDS011;7258;50.376;8.742;2023-06-24T08:19:13;8.20;;;6.57;;
14348;SDS011;7258;50.376;8.742;2023-06-24T08:21:19;7.38;;;5.70;;
14348;SDS011;7258;50.376;8.742;2023-06-24T08:23:22;7.72;;;7.13;;
14348;SDS011;7258;50.376;8.742;2023-06-24T08:25:26;8.25;;;5.80;;
14348;SDS011;7258;50.376;8.742;2023-06-24T08:27:29;5.75;;;5.28;;
14348;SDS011;7258;50.376;8.742;2023-06-24T08:29:32;6.03;;;5.53;;
14348;SDS011;7258;50.376;8.742;2023-06-24T08:31:35;6.45;;;5.72;;
14348;SDS011;7258;50.376;8.742;2023-06-24T08:33:38;8.90;;;5.47;;
14348;SDS011;7258;50.376;8.742;2023-06-24T08:35:41;6.18;;;5.68;;
14348;SDS011;7258;50.376;8.742;2023-06-24T08:37:44;8.65;;;5.72;;
14348;SDS011;7258;50.376;8.742;2023-06-24T08:39:47;5.32;;;4.93;;
14348;SDS011;7258;50.376;8.742;2023-06-24T08:41:51;8.57;;;5.15;;
14348;SDS011;7258;50.376;8.742;2023-06-24T08:43:54;6.00;;;5.40;;
14348;SDS011;7258;50.376;8.742;2023-06-24T08:45:57;6.45;;;5.28;;
14348;SDS011;7258;50.376;8.742;2023-06-24T08:48:03;5.70;;;5.20;;
14348;SDS011;7258;50.376;8.742;2023-06-24T08:50:10;7.68;;;5.53;;
14348;SDS011;7258;50.376;8.742;2023-06-24T08:52:15;7.40;;;5.15;;
14348;SDS011;7258;50.376;8.742;2023-06-24T08:54:19;5.85;;;5.32;;
14348;SDS011;7258;50.376;8.742;2023-06-24T08:56:23;6.00;;;5.40;;
14348;SDS011;7258;50.376;8.742;2023-06-24T08:58:29;6.50;;;5.20;;
14348;SDS011;7258;50.376;8.742;2023-06-24T09:00:32;6.18;;;5.05;;
14348;SDS011;7258;50.376;8.742;2023-06-24T09:02:35;5.93;;;5.32;;
14348;SDS011;7258;50.376;8.742;2023-06-24T09:04:39;6.45;;;4.80;;
14348;SDS011;7258;50.376;8.742;2023-06-24T09:06:43;7.72;;;4.53;;
14348;SDS011;7258;50.376;8.742;2023-06-24T09:08:52;4.80;;;4.40;;
14348;SDS011;7258;50.376;8.742;2023-06-24T09:10:55;8.10;;;4.75;;
14348;SDS011;7258;50.376;8.742;2023-06-24T09:12:59;5.38;;;4.80;;
14348;SDS011;7258;50.376;8.742;2023-06-24T09:15:04;6.43;;;5.45;;
14348;SDS011;7258;50.376;8.742;2023-06-24T09:17:08;6.65;;;5.25;;
14348;SDS011;7258;50.376;8.742;2023-06-24T09:19:11;6.05;;;5.22;;
14348;SDS011;7258;50.376;8.742;2023-06-24T09:21:17;5.38;;;4.88;;
14348;SDS011;7258;50.376;8.742;2023-06-24T09:23:25;4.93;;;4.43;;
14348;SDS011;7258;50.376;8.742;2023-06-24T09:25:30;5.95;;;4.90;;
14348;SDS011;7258;50.376;8.742;2023-06-24T09:27:34;5.60;;;4.45;;
14348;SDS011;7258;50.376;8.742;2023-06-24T09:29:37;5.65;;;4.65;;
14348;SDS011;7258;50.376;8.742;2023-06-24T09:31:48;5.18;;;4.78;;
14348;SDS011;7258;50.376;8.742;2023-06-24T09:34:00;6.55;;;4.55;;
14348;SDS011;7258;50.376;8.742;2023-06-24T09:36:03;6.50;;;4.55;;
14348;SDS011;7258;50.376;8.742;2023-06-24T09:38:09;5.50;;;4.40;;
14348;SDS011;7258;50.376;8.742;2023-06-24T09:40:12;5.10;;;4.60;;
14348;SDS011;7258;50.376;8.742;2023-06-24T09:42:15;4.93;;;4.53;;
14348;SDS011;7258;50.376;8.742;2023-06-24T09:44:23;5.43;;;4.93;;
14348;SDS011;7258;50.376;8.742;2023-06-24T09:46:27;4.93;;;4.45;;
14348;SDS011;7258;50.376;8.742;2023-06-24T09:48:33;5.25;;;4.28;;
14348;SDS011;7258;50.376;8.742;2023-06-24T09:50:36;4.78;;;4.28;;
14348;SDS011;7258;50.376;8.742;2023-06-24T09:52:40;5.28;;;4.70;;
14348;SDS011;7258;50.376;8.742;2023-06-24T09:54:44;4.70;;;4.30;;
14348;SDS011;7258;50.376;8.742;2023-06-24T09:56:53;5.57;;;4.47;;
14348;SDS011;7258;50.376;8.742;2023-06-24T09:58:57;4.60;;;4.20;;
14348;SDS011;7258;50.376;8.742;2023-06-24T10:01:01;7.05;;;4.38;;
14348;SDS011;7258;50.376;8.742;2023-06-24T10:03:06;4.57;;;4.18;;
14348;SDS011;7258;50.376;8.742;2023-06-24T10:05:11;5.53;;;4.40;;
14348;SDS011;7258;50.376;8.742;2023-06-24T10:07:15;4.50;;;4.10;;
14348;SDS011;7258;50.376;8.742;2023-06-24T10:09:18;4.85;;;4.45;;
14348;SDS011;7258;50.376;8.742;2023-06-24T10:14:35;4.82;;;4.43;;
14348;SDS011;7258;50.376;8.742;2023-06-24T10:17:30;5.00;;;4.07;;
14348;SDS011;7258;50.376;8.742;2023-06-24T10:19:44;4.68;;;3.88;;
14348;SDS011;7258;50.376;8.742;2023-06-24T10:25:36;4.60;;;4.20;;
14348;SDS011;7258;50.376;8.742;2023-06-24T10:27:54;4.40;;;4.00;;
14348;SDS011;7258;50.376;8.742;2023-06-24T10:30:03;4.45;;;4.05;;
14348;SDS011;7258;50.376;8.742;2023-06-24T10:32:38;4.80;;;4.30;;
14348;SDS011;7258;50.376;8.742;2023-06-24T10:35:20;5.40;;;3.40;;
14348;SDS011;7258;50.376;8.742;2023-06-24T10:48:11;4.68;;;4.38;;
14348;SDS011;7258;50.376;8.742;2023-06-24T10:50:26;4.05;;;3.75;;
14348;SDS011;7258;50.376;8.742;2023-06-24T10:56:36;4.30;;;3.90;;
14348;SDS011;7258;50.376;8.742;2023-06-24T10:59:56;3.80;;;3.50;;
14348;SDS011;7258;50.376;8.742;2023-06-24T11:09:27;4.40;;;4.00;;
14348;SDS011;7258;50.376;8.742;2023-06-24T11:11:56;5.60;;;4.47;;
14348;SDS011;7258;50.376;8.742;2023-06-24T11:17:38;5.07;;;4.30;;
14348;SDS011;7258;50.376;8.742;2023-06-24T11:23:45;4.60;;;4.13;;
14348;SDS011;7258;50.376;8.742;2023-06-24T11:27:01;4.63;;;4.05;;
14348;SDS011;7258;50.376;8.742;2023-06-24T11:29:16;4.32;;;3.90;;
14348;SDS011;7258;50.376;8.742;2023-06-24T11:32:08;4.55;;;3.75;;
14348;SDS011;7258;50.376;8.742;2023-06-24T11:37:30;6.47;;;4.45;;
14348;SDS011;7258;50.376;8.742;2023-06-24T11:40:03;4.10;;;3.80;;
14348;SDS011;7258;50.376;8.742;2023-06-24T11:42:22;4.55;;;4.15;;
14348;SDS011;7258;50.376;8.742;2023-06-24T11:45:27;5.75;;;3.90;;
14348;SDS011;7258;50.376;8.742;2023-06-24T11:51:45;4.40;;;4.00;;
14348;SDS011;7258;50.376;8.742;2023-06-24T12:14:10;4.20;;;3.80;;
14348;SDS011;7258;50.376;8.742;2023-06-24T12:16:21;6.68;;;4.03;;
14348;SDS011;7258;50.376;8.742;2023-06-24T12:18:34;4.13;;;3.83;;
14348;SDS011;7258;50.376;8.742;2023-06-24T12:20:43;4.25;;;3.85;;
14348;SDS011;7258;50.376;8.742;2023-06-24T12:26:14;4.38;;;4.03;;
14348;SDS011;7258;50.376;8.742;2023-06-24T12:28:35;5.03;;;4.00;;
14348;SDS011;7258;50.376;8.742;2023-06-24T12:30:40;4.82;;;4.30;;
14348;SDS011;7258;50.376;8.742;2023-06-24T12:32:43;4.00;;;3.70;;
14348;SDS011;7258;50.376;8.742;2023-06-24T12:34:50;5.32;;;4.00;;
14348;SDS011;7258;50.376;8.742;2023-06-24T12:37:12;6.43;;;4.43;;
14348;SDS011;7258;50.376;8.742;2023-06-24T12:39:17;5.90;;;3.67;;
14348;SDS011;7258;50.376;8.742;2023-06-24T12:41:21;6.03;;;3.80;;
14348;SDS011;7258;50.376;8.742;2023-06-24T12:43:53;4.68;;;4.30;;
14348;SDS011;7258;50.376;8.742;2023-06-24T12:47:35;3.90;;;3.60;;
14348;SDS011;7258;50.376;8.742;2023-06-24T13:07:51;4.20;;;3.88;;
14348;SDS011;7258;50.376;8.742;2023-06-24T13:11:01;4.82;;;3.75;;
14348;SDS011;7258;50.376;8.742;2023-06-24T13:13:04;4.70;;;3.85;;
14348;SDS011;7258;50.376;8.742;2023-06-24T13:15:10;4.10;;;3.70;;
14348;SDS011;7258;50.376;8.742;2023-06-24T13:17:14;5.75;;;3.58;;
14348;SDS011;7258;50.376;8.742;2023-06-24T13:19:17;4.18;;;3.80;;
14348;SDS011;7258;50.376;8.742;2023-06-24T13:21:20;4.07;;;3.67;;
14348;SDS011;7258;50.376;8.742;2023-06-24T13:23:25;5.25;;;3.40;;
14348;SDS011;7258;50.376;8.742;2023-06-24T13:25:31;4.40;;;3.88;;
14348;SDS011;7258;50.376;8.742;2023-06-24T13:27:38;5.30;;;3.65;;
14348;SDS011;7258;50.376;8.742;2023-06-24T13:29:41;5.72;;;3.50;;
14348;SDS011;7258;50.376;8.742;2023-06-24T13:31:44;6.82;;;4.22;;
14348;SDS011;7258;50.376;8.742;2023-06-24T13:33:48;4.65;;;3.90;;
14348;SDS011;7258;50.376;8.742;2023-06-24T13:35:51;4.50;;;4.07;;
14348;SDS011;7258;50.376;8.742;2023-06-24T13:37:55;5.57;;;3.92;;
14348;SDS011;7258;50.376;8.742;2023-06-24T13:40:01;5.15;;;4.15;;
14348;SDS011;7258;50.376;8.742;2023-06-24T13:42:04;4.50;;;4.20;;
14348;SDS011;7258;50.376;8.742;2023-06-24T13:44:08;4.13;;;3.72;;
14348;SDS011;7258;50.376;8.742;2023-06-24T13:46:11;4.30;;;3.90;;
14348;SDS011;7258;50.376;8.742;2023-06-24T13:48:14;4.10;;;3.80;;
14348;SDS011;7258;50.376;8.742;2023-06-24T13:50:20;4.80;;;4.25;;
14348;SDS011;7258;50.376;8.742;2023-06-24T13:52:25;4.35;;;3.97;;
14348;SDS011;7258;50.376;8.742;2023-06-24T13:54:28;4.18;;;3.78;;
14348;SDS011;7258;50.376;8.742;2023-06-24T13:56:35;3.95;;;3.58;;
14348;SDS011;7258;50.376;8.742;2023-06-24T13:58:38;4.07;;;3.78;;
14348;SDS011;7258;50.376;8.742;2023-06-24T14:00:41;4.28;;;3.78;;
14348;SDS011;7258;50.376;8.742;2023-06-24T14:02:44;4.93;;;3.60;;
14348;SDS011;7258;50.376;8.742;2023-06-24T14:04:48;4.57;;;4.18;;
14348;SDS011;7258;50.376;8.742;2023-06-24T14:06:51;4.05;;;3.80;;
14348;SDS011;7258;50.376;8.742;2023-06-24T14:08:55;4.28;;;3.85;;
14348;SDS011;7258;50.376;8.742;2023-06-24T14:10:58;5.45;;;3.90;;
14348;SDS011;7258;50.376;8.742;2023-06-24T14:13:04;4.35;;;3.58;;
14348;SDS011;7258;50.376;8.742;2023-06-24T14:15:07;4.47;;;4.10;;
14348;SDS011;7258;50.376;8.742;2023-06-24T14:17:11;3.78;;;3.47;;
14348;SDS011;7258;50.376;8.742;2023-06-24T14:19:25;6.78;;;3.85;;
14348;SDS011;7258;50.376;8.742;2023-06-24T14:21:28;4.90;;;3.80;;